createdAt,value
2023-11-18T00:01:34.270Z,72.88
2023-11-18T00:04:02.232Z,70.91
2023-11-18T00:06:29.653Z,72.19
2023-11-18T00:08:57.066Z,72.99
2023-11-18T00:11:25.268Z,71.92
2023-11-18T00:13:52.797Z,71.79
2023-11-18T00:16:20.285Z,71.11
2023-11-18T00:18:48.245Z,71.09
2023-11-18T00:21:15.606Z,71.00
2023-11-18T00:23:43.069Z,69.33
2023-11-18T00:26:11.507Z,69.02
2023-11-18T00:28:39.008Z,70.64
2023-11-18T00:31:07.704Z,71.38
2023-11-18T00:33:35.479Z,68.13
2023-11-18T00:36:04.344Z,71.18
2023-11-18T00:38:31.771Z,70.99
2023-11-18T00:40:59.646Z,72.12
2023-11-18T00:43:27.377Z,71.55
2023-11-18T00:45:54.792Z,72.54
2023-11-18T00:48:22.460Z,72.75
2023-11-18T00:50:49.812Z,70.83
2023-11-18T00:53:17.174Z,69.72
2023-11-18T00:55:45.005Z,70.37
2023-11-18T00:58:12.429Z,71.04
2023-11-18T01:00:39.815Z,70.76
2023-11-18T01:03:07.594Z,71.13
2023-11-18T01:05:35.631Z,70.03
2023-11-18T01:08:03.762Z,69.52
2023-11-18T01:10:31.476Z,71.64
2023-11-18T01:12:58.988Z,70.70
2023-11-18T01:15:26.403Z,71.92
2023-11-18T01:17:54.288Z,70.53
2023-11-18T01:20:22.933Z,71.00
2023-11-18T01:22:50.595Z,71.28
2023-11-18T01:25:18.680Z,70.88
2023-11-18T01:27:49.167Z,70.73
2023-11-18T01:30:17.655Z,70.53
2023-11-18T01:32:45.450Z,70.93
2023-11-18T01:35:13.729Z,70.83
2023-11-18T01:37:41.348Z,67.93
2023-11-18T01:40:09.304Z,70.36
2023-11-18T01:42:38.156Z,69.36
2023-11-18T01:45:06.696Z,71.10
2023-11-18T01:47:34.852Z,70.33
2023-11-18T01:50:02.616Z,69.09
2023-11-18T01:52:31.648Z,69.95
2023-11-18T01:54:59.558Z,70.20
2023-11-18T01:57:28.100Z,69.68
2023-11-18T01:59:55.656Z,69.98
2023-11-18T02:02:23.529Z,70.18
2023-11-18T02:04:51.548Z,70.62
2023-11-18T02:07:19.145Z,68.71
2023-11-18T02:09:46.988Z,69.66
2023-11-18T02:12:22.995Z,69.23
2023-11-18T02:14:51.052Z,71.06
2023-11-18T02:17:25.363Z,69.74
2023-11-18T02:19:57.776Z,71.12
2023-11-18T02:22:25.814Z,71.42
2023-11-18T02:24:54.255Z,70.66
2023-11-18T02:27:23.359Z,71.13
2023-11-18T02:29:52.325Z,71.04
2023-11-18T02:32:27.939Z,69.96
2023-11-18T02:35:11.738Z,71.21
2023-11-18T02:37:40.431Z,71.37
2023-11-18T02:40:15.545Z,71.39
2023-11-18T02:42:44.505Z,71.45
2023-11-18T02:45:16.281Z,70.47
2023-11-18T02:47:47.102Z,71.39
2023-11-18T02:50:14.978Z,70.26
2023-11-18T02:52:43.158Z,71.94
2023-11-18T02:55:11.709Z,71.23
2023-11-18T02:57:39.312Z,70.81
2023-11-18T03:00:12.283Z,71.44
2023-11-18T03:02:40.732Z,71.62
2023-11-18T03:05:09.001Z,72.16
2023-11-18T03:07:36.433Z,69.77
2023-11-18T03:10:09.572Z,70.37
2023-11-18T03:12:36.957Z,70.81
2023-11-18T03:15:06.965Z,72.18
2023-11-18T03:17:34.816Z,71.38
2023-11-18T03:20:02.346Z,71.31
2023-11-18T03:22:30.677Z,72.74
2023-11-18T03:24:58.151Z,73.02
2023-11-18T03:27:25.533Z,72.48
2023-11-18T03:29:53.867Z,73.24
2023-11-18T03:32:22.571Z,72.45
2023-11-18T03:34:50.454Z,71.89
2023-11-18T03:37:18.162Z,72.82
2023-11-18T03:39:46.408Z,73.21
2023-11-18T03:42:13.846Z,72.07
2023-11-18T03:44:41.900Z,73.03
2023-11-18T03:47:09.361Z,71.98
2023-11-18T03:49:37.080Z,72.10
2023-11-18T03:52:05.330Z,72.40
2023-11-18T03:54:32.731Z,72.86
2023-11-18T03:57:00.706Z,71.37
2023-11-18T03:59:28.522Z,71.92
2023-11-18T04:01:55.974Z,71.65
2023-11-18T04:04:23.689Z,71.06
2023-11-18T04:06:51.365Z,70.69
2023-11-18T04:09:18.749Z,71.66
2023-11-18T04:11:47.169Z,71.55
2023-11-18T04:14:14.536Z,72.33
2023-11-18T04:16:42.882Z,71.93
2023-11-18T04:19:10.666Z,72.03
2023-11-18T04:21:38.019Z,72.61
2023-11-18T04:24:06.624Z,72.09
2023-11-18T04:26:34.264Z,71.86
2023-11-18T04:29:01.684Z,71.20
2023-11-18T04:31:29.037Z,72.03
2023-11-18T04:33:57.134Z,71.43
2023-11-18T04:36:24.521Z,72.28
2023-11-18T04:38:51.893Z,71.04
2023-11-18T04:41:19.715Z,71.12
2023-11-18T04:43:48.770Z,71.21
2023-11-18T04:46:16.413Z,72.18
2023-11-18T04:48:44.299Z,72.08
2023-11-18T04:51:13.252Z,72.16
2023-11-18T04:53:40.668Z,70.80
2023-11-18T04:56:11.707Z,70.14
2023-11-18T04:58:40.382Z,71.31
2023-11-18T05:01:08.128Z,71.68
2023-11-18T05:03:36.137Z,70.19
2023-11-18T05:06:05.081Z,71.22
2023-11-18T05:08:34.773Z,70.98
2023-11-18T05:11:02.365Z,71.41
2023-11-18T05:13:30.869Z,70.17
2023-11-18T05:15:58.492Z,70.80
2023-11-18T05:18:26.196Z,69.93
2023-11-18T05:20:55.493Z,71.10
2023-11-18T05:23:23.143Z,71.26
2023-11-18T05:25:51.132Z,70.57
2023-11-18T05:28:18.511Z,70.65
2023-11-18T05:30:46.196Z,70.60
2023-11-18T05:33:18.757Z,71.04
2023-11-18T05:35:50.479Z,71.09
2023-11-18T05:38:22.921Z,72.10
2023-11-18T05:40:58.018Z,71.11
2023-11-18T05:43:31.096Z,70.66
2023-11-18T05:46:15.955Z,71.92
2023-11-18T05:48:45.038Z,70.79
2023-11-18T05:51:12.861Z,72.14
2023-11-18T05:53:47.476Z,71.11
2023-11-18T05:56:15.689Z,71.67
2023-11-18T05:58:44.465Z,71.72
2023-11-18T06:01:12.882Z,71.77
2023-11-18T06:03:41.104Z,71.48
2023-11-18T06:06:09.085Z,70.98
2023-11-18T06:08:37.120Z,71.67
2023-11-18T06:11:13.973Z,70.15
2023-11-18T06:13:51.807Z,68.83
2023-11-18T06:16:21.549Z,71.55
2023-11-18T06:18:51.047Z,72.53
2023-11-18T06:21:19.991Z,70.64
2023-11-18T06:23:50.978Z,70.84
2023-11-18T06:26:21.549Z,71.11
2023-11-18T06:28:50.449Z,69.90
2023-11-18T06:31:18.416Z,70.32
2023-11-18T06:33:46.994Z,71.97
2023-11-18T06:36:14.626Z,70.93
2023-11-18T06:38:42.362Z,70.84
2023-11-18T06:41:12.985Z,71.79
2023-11-18T06:43:53.619Z,70.90
2023-11-18T06:46:23.858Z,71.04
2023-11-18T06:48:55.311Z,70.83
2023-11-18T06:51:25.544Z,71.06
2023-11-18T06:53:53.287Z,69.39
2023-11-18T06:56:20.805Z,67.86
2023-11-18T06:58:48.195Z,69.92
2023-11-18T07:01:16.263Z,69.10
2023-11-18T07:03:44.830Z,70.51
2023-11-18T07:06:15.414Z,70.26
2023-11-18T07:08:43.028Z,70.49
2023-11-18T07:11:10.874Z,70.19
2023-11-18T07:13:40.049Z,70.42
2023-11-18T07:16:10.136Z,70.50
2023-11-18T07:18:39.173Z,70.39
2023-11-18T07:21:06.610Z,69.61
2023-11-18T07:23:34.350Z,70.46
2023-11-18T07:26:02.169Z,69.58
2023-11-18T07:28:29.786Z,67.97
2023-11-18T07:30:59.247Z,69.25
2023-11-18T07:33:27.260Z,68.48
2023-11-18T07:35:55.105Z,69.20
2023-11-18T07:38:22.874Z,67.63
2023-11-18T07:40:50.328Z,69.00
2023-11-18T07:43:17.726Z,67.93
2023-11-18T07:45:45.504Z,67.99
2023-11-18T07:48:13.301Z,67.62
2023-11-18T07:50:45.705Z,67.23
2023-11-18T07:53:13.556Z,67.54
2023-11-18T07:55:41.142Z,67.16
2023-11-18T07:58:14.405Z,66.46
2023-11-18T08:00:42.614Z,66.18
2023-11-18T08:03:13.348Z,66.01
2023-11-18T08:05:47.490Z,65.09
2023-11-18T08:08:18.071Z,65.07
2023-11-18T08:10:46.080Z,66.22
2023-11-18T08:13:14.173Z,65.23
2023-11-18T08:15:42.904Z,65.49
2023-11-18T08:18:13.231Z,64.76
2023-11-18T08:20:40.795Z,64.49
2023-11-18T08:23:08.470Z,63.25
2023-11-18T08:25:37.261Z,65.19
2023-11-18T08:28:05.883Z,65.28
2023-11-18T08:30:37.176Z,64.10
2023-11-18T08:33:10.703Z,64.13
2023-11-18T08:35:38.651Z,64.76
2023-11-18T08:38:08.747Z,63.57
2023-11-18T08:40:37.289Z,62.82
2023-11-18T08:43:08.761Z,63.78
2023-11-18T08:45:37.519Z,63.48
2023-11-18T08:48:09.496Z,62.83
2023-11-18T08:50:37.732Z,63.91
2023-11-18T08:53:06.846Z,63.94
2023-11-18T08:55:42.398Z,63.50
2023-11-18T08:58:23.449Z,63.24
2023-11-18T09:00:56.168Z,63.48
2023-11-18T09:03:37.611Z,62.91
2023-11-18T09:06:07.494Z,62.47
2023-11-18T09:08:36.655Z,62.63
2023-11-18T09:11:08.122Z,63.52
2023-11-18T09:13:36.411Z,63.15
2023-11-18T09:16:05.245Z,61.53
2023-11-18T09:18:34.914Z,61.95
2023-11-18T09:21:04.645Z,62.54
2023-11-18T09:23:33.196Z,62.35
2023-11-18T09:26:00.629Z,61.84
2023-11-18T09:28:31.464Z,61.36
2023-11-18T09:30:59.144Z,61.50
2023-11-18T09:33:27.111Z,61.65
2023-11-18T09:36:01.077Z,62.01
2023-11-18T09:38:29.929Z,61.94
2023-11-18T09:41:04.276Z,61.66
2023-11-18T09:43:34.016Z,61.54
2023-11-18T09:46:13.561Z,61.70
2023-11-18T09:49:03.099Z,61.34
2023-11-18T09:51:36.311Z,61.42
2023-11-18T09:54:11.237Z,60.85
2023-11-18T09:56:47.977Z,61.10
2023-11-18T09:59:24.967Z,61.13
2023-11-18T10:01:58.838Z,61.26
2023-11-18T10:04:29.005Z,61.08
2023-11-18T10:06:57.674Z,60.98
2023-11-18T10:09:41.021Z,60.93
2023-11-18T10:12:08.890Z,60.91
2023-11-18T10:14:36.577Z,59.54
2023-11-18T10:17:08.214Z,59.09
2023-11-18T10:19:58.386Z,59.09
2023-11-18T10:22:30.330Z,58.50
2023-11-18T10:24:58.396Z,58.50
2023-11-18T10:27:26.446Z,59.32
2023-11-18T10:30:06.957Z,59.07
2023-11-18T10:32:37.377Z,58.22
2023-11-18T10:35:09.062Z,58.29
2023-11-18T10:37:43.328Z,58.76
2023-11-18T10:40:14.677Z,57.80
2023-11-18T10:42:44.095Z,58.02
2023-11-18T10:45:14.249Z,59.23
2023-11-18T10:47:43.726Z,59.73
2023-11-18T10:50:11.734Z,58.33
2023-11-18T10:52:42.383Z,58.03
2023-11-18T10:55:13.840Z,58.82
2023-11-18T10:57:43.431Z,58.22
2023-11-18T11:00:16.105Z,59.16
2023-11-18T11:02:44.270Z,58.80
2023-11-18T11:05:21.000Z,59.10
2023-11-18T11:07:50.089Z,58.95
2023-11-18T11:10:18.088Z,59.35
2023-11-18T11:12:53.355Z,58.80
2023-11-18T11:15:30.262Z,58.32
2023-11-18T11:18:10.041Z,58.06
2023-11-18T11:20:43.455Z,57.80
2023-11-18T11:23:22.898Z,57.52
2023-11-18T11:26:05.759Z,58.45
2023-11-18T11:28:47.802Z,58.28
2023-11-18T11:31:23.912Z,58.47
2023-11-18T11:33:59.939Z,58.87
2023-11-18T11:36:32.589Z,58.17
2023-11-18T11:38:59.937Z,57.92
2023-11-18T11:41:27.962Z,57.18
2023-11-18T11:44:00.161Z,57.41
2023-11-18T11:46:34.434Z,57.44
2023-11-18T11:49:09.715Z,57.29
2023-11-18T11:51:56.644Z,57.51
2023-11-18T11:54:37.922Z,56.90
2023-11-18T11:57:07.234Z,57.16
2023-11-18T11:59:45.910Z,56.53
2023-11-18T12:02:23.303Z,56.70
2023-11-18T12:04:53.867Z,56.89
2023-11-18T12:07:24.219Z,55.10
2023-11-18T12:09:54.847Z,55.28
2023-11-18T12:12:22.793Z,53.54
2023-11-18T12:15:22.776Z,54.38
2023-11-18T12:18:00.324Z,56.40
2023-11-18T12:20:44.057Z,56.21
2023-11-18T12:23:24.267Z,55.81
2023-11-18T12:25:55.478Z,56.05
2023-11-18T12:28:31.988Z,56.44
2023-11-18T12:31:07.587Z,55.21
2023-11-18T12:33:54.408Z,54.53
2023-11-18T12:36:31.669Z,54.54
2023-11-18T12:39:21.240Z,55.01
2023-11-18T12:42:07.660Z,54.98
2023-11-18T12:45:23.360Z,55.44
2023-11-18T12:47:52.409Z,54.94
2023-11-18T12:50:25.651Z,55.38
2023-11-18T12:52:53.742Z,54.97
2023-11-18T12:55:21.565Z,56.79
2023-11-18T12:57:49.401Z,56.19
2023-11-18T13:00:29.276Z,56.06
2023-11-18T13:02:59.276Z,55.49
2023-11-18T13:05:31.308Z,54.72
2023-11-18T13:08:00.397Z,55.97
2023-11-18T13:10:28.246Z,55.68
2023-11-18T13:12:55.672Z,55.70
2023-11-18T13:15:25.691Z,55.64
2023-11-18T13:18:02.698Z,55.65
2023-11-18T13:20:30.445Z,55.50
2023-11-18T13:22:57.919Z,54.83
2023-11-18T13:25:25.338Z,54.71
2023-11-18T13:27:52.992Z,54.70
2023-11-18T13:30:21.872Z,56.23
2023-11-18T13:32:50.721Z,56.54
2023-11-18T13:35:20.582Z,56.89
2023-11-18T13:37:50.110Z,57.51
2023-11-18T13:40:20.650Z,57.29
2023-11-18T13:42:48.102Z,56.46
2023-11-18T13:45:30.662Z,56.90
2023-11-18T13:48:04.112Z,56.04
2023-11-18T13:50:31.657Z,56.53
2023-11-18T13:52:59.550Z,56.87
2023-11-18T13:55:28.873Z,56.96
2023-11-18T13:57:58.752Z,57.67
2023-11-18T14:00:31.240Z,57.64
2023-11-18T14:03:05.912Z,58.07
2023-11-18T14:05:34.619Z,57.10
2023-11-18T14:08:09.853Z,56.84
2023-11-18T14:10:39.623Z,57.10
2023-11-18T14:13:07.440Z,57.85
2023-11-18T14:15:37.690Z,58.15
2023-11-18T14:18:05.504Z,57.83
2023-11-18T14:20:33.245Z,55.92
2023-11-18T14:23:00.739Z,56.80
2023-11-18T14:25:28.484Z,56.69
2023-11-18T14:27:56.137Z,55.99
2023-11-18T14:30:26.648Z,55.62
2023-11-18T14:32:54.076Z,55.67
2023-11-18T14:35:22.072Z,55.70
2023-11-18T14:37:49.803Z,55.34
2023-11-18T14:40:17.439Z,56.85
2023-11-18T14:42:46.710Z,56.76
2023-11-18T14:45:14.829Z,56.58
2023-11-18T14:47:42.481Z,55.48
2023-11-18T14:50:18.956Z,55.65
2023-11-18T14:52:55.572Z,54.27
2023-11-18T14:55:23.349Z,55.11
2023-11-18T14:57:51.418Z,55.59
2023-11-18T15:00:25.948Z,56.73
2023-11-18T15:02:56.789Z,56.37
2023-11-18T15:05:26.977Z,57.38
2023-11-18T15:07:55.870Z,57.58
2023-11-18T15:10:24.248Z,57.57
2023-11-18T15:12:56.063Z,57.80
2023-11-18T15:15:24.059Z,58.51
2023-11-18T15:17:51.883Z,58.62
2023-11-18T15:20:19.776Z,59.14
2023-11-18T15:22:47.534Z,59.67
2023-11-18T15:25:15.032Z,60.26
2023-11-18T15:27:44.369Z,60.03
2023-11-18T15:30:12.659Z,59.70
2023-11-18T15:32:41.736Z,60.06
2023-11-18T15:35:12.099Z,59.68
2023-11-18T15:37:42.380Z,59.63
2023-11-18T15:40:11.765Z,59.11
2023-11-18T15:42:42.705Z,59.71
2023-11-18T15:45:14.345Z,58.41
2023-11-18T15:47:43.854Z,56.91
2023-11-18T15:50:19.796Z,60.17
2023-11-18T15:52:49.049Z,61.41
2023-11-18T15:55:18.360Z,59.14
2023-11-18T15:57:53.571Z,58.55
2023-11-18T16:00:21.703Z,60.65
2023-11-18T16:02:50.113Z,60.03
2023-11-18T16:05:19.474Z,60.63
2023-11-18T16:07:46.996Z,61.58
2023-11-18T16:10:22.762Z,60.17
2023-11-18T16:12:53.906Z,59.91
2023-11-18T16:15:23.094Z,60.68
2023-11-18T16:17:50.930Z,60.57
2023-11-18T16:20:19.617Z,61.82
2023-11-18T16:22:50.865Z,61.26
2023-11-18T16:25:21.103Z,61.21
2023-11-18T16:27:49.102Z,60.01
2023-11-18T16:30:16.737Z,61.73
2023-11-18T16:32:47.085Z,60.09
2023-11-18T16:35:17.546Z,61.34
2023-11-18T16:37:45.011Z,61.45
2023-11-18T16:40:15.177Z,62.02
2023-11-18T16:42:43.671Z,63.08
2023-11-18T16:45:12.021Z,63.36
2023-11-18T16:47:40.304Z,61.25
2023-11-18T16:50:15.553Z,59.54
2023-11-18T16:52:42.969Z,59.38
2023-11-18T16:55:10.701Z,62.35
2023-11-18T16:57:38.240Z,60.10
2023-11-18T17:00:24.197Z,61.65
2023-11-18T17:02:59.294Z,61.35
2023-11-18T17:05:32.258Z,61.37
2023-11-18T17:08:01.850Z,63.75
2023-11-18T17:10:29.905Z,62.60
2023-11-18T17:12:59.031Z,63.00
2023-11-18T17:15:26.957Z,63.99
2023-11-18T17:18:03.206Z,64.14
2023-11-18T17:20:32.216Z,62.21
2023-11-18T17:23:00.052Z,64.64
2023-11-18T17:25:27.644Z,62.93
2023-11-18T17:27:55.282Z,63.74
2023-11-18T17:30:22.687Z,64.28
2023-11-18T17:32:51.833Z,64.17
2023-11-18T17:35:21.398Z,64.75
2023-11-18T17:37:48.963Z,64.80
2023-11-18T17:40:17.111Z,65.87
2023-11-18T17:42:45.640Z,64.29
2023-11-18T17:45:13.824Z,64.78
2023-11-18T17:47:44.019Z,66.55
2023-11-18T17:50:14.022Z,65.79
2023-11-18T17:52:45.079Z,66.03
2023-11-18T17:55:18.848Z,66.27
2023-11-18T17:57:47.470Z,66.38
2023-11-18T18:00:21.420Z,65.48
2023-11-18T18:02:50.109Z,64.96
2023-11-18T18:05:17.934Z,65.63
2023-11-18T18:07:45.364Z,64.61
2023-11-18T18:10:16.939Z,66.33
2023-11-18T18:12:47.765Z,64.84
2023-11-18T18:15:15.727Z,65.96
2023-11-18T18:17:43.969Z,66.04
2023-11-18T18:20:13.309Z,66.74
2023-11-18T18:22:41.510Z,65.47
2023-11-18T18:25:10.042Z,66.09
2023-11-18T18:27:37.625Z,64.80
2023-11-18T18:30:05.829Z,65.03
2023-11-18T18:32:34.028Z,65.47
2023-11-18T18:35:01.648Z,63.06
2023-11-18T18:37:29.548Z,65.19
2023-11-18T18:39:57.172Z,66.00
2023-11-18T18:42:25.715Z,65.18
2023-11-18T18:44:57.567Z,64.54
2023-11-18T18:47:26.955Z,66.60
2023-11-18T18:49:56.537Z,66.08
2023-11-18T18:52:23.946Z,66.45
2023-11-18T18:54:51.400Z,64.24
2023-11-18T18:57:19.232Z,66.28
2023-11-18T18:59:46.708Z,63.64
2023-11-18T19:02:14.418Z,61.88
2023-11-18T19:04:43.502Z,64.48
2023-11-18T19:07:11.219Z,63.16
2023-11-18T19:09:38.681Z,64.50
2023-11-18T19:12:06.787Z,66.87
2023-11-18T19:14:34.298Z,65.02
2023-11-18T19:17:04.931Z,65.35
2023-11-18T19:19:32.941Z,65.32
2023-11-18T19:22:01.729Z,65.51
2023-11-18T19:24:31.727Z,63.96
2023-11-18T19:26:59.688Z,64.20
2023-11-18T19:29:29.493Z,64.39
2023-11-18T19:31:56.909Z,64.68
2023-11-18T19:34:24.561Z,66.06
2023-11-18T19:36:52.738Z,66.73
2023-11-18T19:39:20.730Z,65.31
2023-11-18T19:41:48.396Z,67.43
2023-11-18T19:44:17.390Z,67.73
2023-11-18T19:46:51.060Z,67.21
2023-11-18T19:49:18.925Z,68.50
2023-11-18T19:51:46.811Z,66.84
2023-11-18T19:54:14.316Z,66.41
2023-11-18T19:56:41.964Z,65.94
2023-11-18T19:59:09.427Z,67.86
2023-11-18T20:01:37.172Z,67.74
2023-11-18T20:04:06.318Z,67.03
2023-11-18T20:06:35.364Z,67.66
2023-11-18T20:09:03.946Z,68.23
2023-11-18T20:11:32.223Z,68.69
2023-11-18T20:13:59.681Z,69.36
2023-11-18T20:16:27.180Z,69.32
2023-11-18T20:18:54.815Z,69.18
2023-11-18T20:21:22.206Z,69.14
2023-11-18T20:23:49.981Z,68.55
2023-11-18T20:26:17.639Z,68.98
2023-11-18T20:28:46.590Z,69.36
2023-11-18T20:31:14.125Z,68.74
2023-11-18T20:33:43.331Z,67.69
2023-11-18T20:36:11.035Z,65.87
2023-11-18T20:38:38.627Z,67.31
2023-11-18T20:41:06.384Z,69.78
2023-11-18T20:43:34.142Z,68.39
2023-11-18T20:46:01.810Z,67.93
2023-11-18T20:48:29.541Z,67.01
2023-11-18T20:50:57.276Z,68.68
2023-11-18T20:53:25.599Z,69.07
2023-11-18T20:55:53.364Z,69.44
2023-11-18T20:58:21.164Z,69.31
2023-11-18T21:00:48.805Z,69.08
2023-11-18T21:03:16.644Z,69.90
2023-11-18T21:05:44.338Z,69.05
2023-11-18T21:08:13.928Z,69.20
2023-11-18T21:10:41.577Z,68.54
2023-11-18T21:13:09.045Z,66.23
2023-11-18T21:15:37.686Z,69.16
2023-11-18T21:18:05.362Z,66.39
2023-11-18T21:20:32.783Z,66.80
2023-11-18T21:23:00.629Z,67.45
2023-11-18T21:25:28.286Z,67.12
2023-11-18T21:28:04.066Z,67.36
2023-11-18T21:30:33.368Z,69.24
2023-11-18T21:33:04.765Z,69.45
2023-11-18T21:35:32.655Z,69.06
2023-11-18T21:38:00.057Z,69.51
2023-11-18T21:40:29.633Z,68.93
2023-11-18T21:42:58.931Z,68.84
2023-11-18T21:45:28.858Z,68.15
2023-11-18T21:48:05.253Z,69.16
2023-11-18T21:50:34.524Z,69.68
2023-11-18T21:53:03.776Z,67.29
2023-11-18T21:55:31.414Z,69.30
2023-11-18T21:57:58.896Z,69.61
2023-11-18T22:00:26.568Z,66.40
2023-11-18T22:02:54.520Z,69.27
2023-11-18T22:05:22.421Z,68.68
2023-11-18T22:07:50.030Z,68.42
2023-11-18T22:10:18.855Z,68.22
2023-11-18T22:12:46.472Z,66.39
2023-11-18T22:15:17.780Z,66.53
2023-11-18T22:17:46.548Z,69.32
2023-11-18T22:20:16.013Z,69.23
2023-11-18T22:22:43.476Z,66.47
2023-11-18T22:25:11.139Z,67.35
2023-11-18T22:27:41.620Z,69.19
2023-11-18T22:30:12.642Z,69.02
2023-11-18T22:32:40.972Z,68.09
2023-11-18T22:35:09.147Z,68.00
2023-11-18T22:37:36.675Z,69.07
2023-11-18T22:40:10.121Z,67.14
2023-11-18T22:42:38.975Z,66.27
2023-11-18T22:45:16.921Z,67.64
2023-11-18T22:47:45.631Z,69.00
2023-11-18T22:50:14.101Z,66.93
2023-11-18T22:52:41.672Z,66.83
2023-11-18T22:57:40.560Z,66.09
2023-11-18T23:00:15.901Z,68.38
2023-11-18T23:02:43.776Z,68.33
2023-11-18T23:05:15.155Z,69.07
2023-11-18T23:07:45.988Z,70.09
2023-11-18T23:10:15.396Z,69.13
2023-11-18T23:12:42.798Z,68.57
2023-11-18T23:15:10.249Z,66.96
2023-11-18T23:17:38.065Z,67.51
2023-11-18T23:20:12.012Z,67.26
2023-11-18T23:22:39.987Z,68.85
2023-11-18T23:25:07.666Z,68.08
2023-11-18T23:27:35.085Z,65.39
2023-11-18T23:30:03.960Z,63.12
2023-11-18T23:32:34.100Z,64.36
2023-11-18T23:35:02.505Z,66.83
2023-11-18T23:37:30.550Z,68.68
2023-11-18T23:39:57.951Z,68.35
2023-11-18T23:42:25.362Z,68.25
2023-11-18T23:44:53.276Z,65.96
2023-11-18T23:47:21.024Z,65.78
2023-11-18T23:49:57.335Z,66.13
2023-11-18T23:52:25.556Z,70.68
2023-11-18T23:54:53.223Z,68.46
2023-11-18T23:57:20.701Z,67.30
2023-11-18T23:59:48.354Z,67.92
